createdAt,value
2023-05-10T00:05:53.152Z,3.36
2023-05-10T00:16:04.337Z,2.89
2023-05-10T00:26:03.194Z,2.34
2023-05-10T00:36:11.956Z,2.38
2023-05-10T00:46:20.807Z,2.1
2023-05-10T00:56:29.555Z,2.11
2023-05-10T01:06:38.276Z,3
2023-05-10T01:16:47.100Z,2.81
2023-05-10T01:26:55.777Z,2.4
2023-05-10T01:37:04.486Z,3.2
2023-05-10T01:47:13.252Z,3.44
2023-05-10T01:57:22.094Z,3.81
2023-05-10T02:07:30.802Z,4.84
2023-05-10T02:17:39.731Z,5.21
2023-05-10T02:27:48.507Z,4.88
2023-05-10T02:37:57.244Z,4.48
2023-05-10T02:48:06.086Z,4.29
2023-05-10T02:58:15.969Z,4.01
2023-05-10T03:08:24.655Z,4.59
2023-05-10T03:18:33.424Z,4.87
2023-05-10T03:28:43.407Z,4.44
2023-05-10T03:38:51.850Z,4.57
2023-05-10T03:49:00.555Z,3.35
2023-05-10T03:59:09.408Z,3.41
2023-05-10T04:09:18.143Z,2.3
2023-05-10T04:19:27.336Z,1.47
2023-05-10T04:29:36.080Z,1.29
2023-05-10T04:39:44.268Z,1.19
2023-05-10T04:49:53.030Z,1.32
2023-05-10T05:00:01.326Z,1.18
2023-05-10T05:10:10.275Z,1.15
2023-05-10T05:20:19.225Z,1.19
2023-05-10T05:30:27.654Z,1.15
2023-05-10T05:40:36.384Z,1.17
2023-05-10T05:50:45.213Z,1.41
2023-05-10T06:00:53.978Z,1.08
2023-05-10T06:11:03.999Z,1.33
2023-05-10T06:21:03.217Z,1.18
2023-05-10T06:31:11.953Z,1.09
2023-05-10T06:41:22.038Z,1.53
2023-05-10T06:51:29.092Z,1.19
2023-05-10T07:01:37.843Z,1.21
2023-05-10T07:11:46.599Z,1.11
2023-05-10T07:21:55.259Z,1.3
2023-05-10T07:32:03.742Z,1.44
2023-05-10T07:42:12.421Z,1.44
2023-05-10T07:52:22.600Z,1.34
2023-05-10T08:02:29.656Z,2.64
2023-05-10T08:12:38.405Z,1.6
2023-05-10T08:22:47.782Z,1.39
2023-05-10T08:32:55.816Z,1.42
2023-05-10T08:43:04.528Z,2.1
2023-05-10T08:53:13.247Z,1.64
2023-05-10T09:03:21.892Z,1.15
2023-05-10T09:13:30.582Z,1.77
2023-05-10T09:23:39.286Z,1.34
2023-05-10T09:33:48.058Z,1.63
2023-05-10T09:43:56.912Z,1.44
2023-05-10T09:54:05.730Z,1.69
2023-05-10T10:04:14.462Z,1.49
2023-05-10T10:14:23.150Z,2.51
2023-05-10T10:24:31.744Z,2.48
2023-05-10T10:34:40.860Z,2.58
2023-05-10T10:44:49.651Z,2.61
2023-05-10T10:54:58.952Z,3.18
2023-05-10T11:05:07.652Z,3.31
2023-05-10T11:15:16.708Z,3.16
2023-05-10T11:25:25.086Z,2.89
2023-05-10T11:35:33.864Z,2.62
2023-05-10T11:45:42.575Z,2.34
2023-05-10T11:55:51.244Z,2.63
2023-05-10T12:05:59.953Z,2.61
2023-05-10T12:16:08.622Z,2.83
2023-05-10T12:26:17.298Z,2.23
2023-05-10T12:36:27.614Z,2.66
2023-05-10T12:46:25.533Z,2.08
2023-05-10T12:56:33.341Z,2.27
2023-05-10T13:06:41.149Z,2.14
2023-05-10T13:16:48.959Z,2.72
2023-05-10T13:26:56.609Z,2.21
2023-05-10T13:37:10.341Z,2.05
2023-05-10T13:47:08.151Z,1.81
2023-05-10T13:57:16.000Z,2.13
2023-05-10T14:07:24.948Z,2.22
2023-05-10T14:17:32.853Z,2.36
2023-05-10T14:27:40.640Z,1.86
2023-05-10T14:37:49.939Z,2.5
2023-05-10T14:47:57.905Z,2.43
2023-05-10T14:58:05.928Z,2.18
2023-05-10T15:08:14.470Z,2.66
2023-05-10T15:18:24.080Z,2.57
2023-05-10T15:28:33.053Z,2.41
2023-05-10T15:38:39.663Z,2.56
2023-05-10T15:48:47.411Z,2.17
2023-05-10T15:58:56.094Z,2.32
2023-05-10T16:09:04.220Z,2.19
2023-05-10T16:19:12.942Z,2.29
2023-05-10T16:29:21.825Z,2.85
2023-05-10T16:39:30.633Z,2.63
2023-05-10T16:49:39.232Z,3.05
2023-05-10T16:59:47.813Z,2.44
2023-05-10T17:09:57.975Z,3.51
2023-05-10T17:20:05.808Z,2.78
2023-05-10T17:30:32.373Z,2.55
2023-05-10T17:40:25.830Z,2.68
2023-05-10T17:50:27.953Z,2.66
2023-05-10T18:00:34.308Z,2.61
2023-05-10T18:10:57.115Z,2.86
2023-05-10T18:20:46.763Z,2.83
2023-05-10T18:30:52.074Z,3.27
2023-05-10T18:41:03.683Z,3.1
2023-05-10T18:51:06.932Z,3.33
2023-05-10T19:01:05.602Z,3.3
2023-05-10T19:11:14.305Z,3.18
2023-05-10T19:21:26.393Z,3.15
2023-05-10T19:31:25.357Z,3.48
2023-05-10T19:41:35.166Z,3.02
2023-05-10T19:51:46.327Z,3.24
2023-05-10T20:01:46.495Z,2.58
2023-05-10T20:11:45.203Z,2.81
2023-05-10T20:21:54.340Z,2.67
2023-05-10T20:32:03.126Z,2.79
2023-05-10T20:42:12.731Z,2.96
2023-05-10T20:52:22.803Z,2.75
2023-05-10T21:02:29.858Z,3.06
2023-05-10T21:12:45.796Z,2.93
2023-05-10T21:22:46.167Z,2.81
2023-05-10T21:32:46.607Z,2.6
2023-05-10T21:42:57.223Z,2.79
2023-05-10T21:52:51.758Z,3.02
2023-05-10T22:02:57.896Z,2.75
2023-05-10T22:13:00.905Z,2.76
2023-05-10T22:22:59.969Z,2.78
2023-05-10T22:33:15.613Z,2.69
2023-05-10T22:43:21.498Z,2.69
2023-05-10T22:53:30.181Z,2.9
2023-05-10T23:03:28.846Z,3.05
2023-05-10T23:13:37.426Z,3.01
2023-05-10T23:23:45.988Z,2.76
2023-05-10T23:33:54.596Z,2.74
2023-05-10T23:44:03.259Z,2.68
2023-05-10T23:54:11.934Z,2.47
